createdAt,value
2022-11-07T00:01:13.319Z,10.90
2022-11-07T00:03:41.306Z,10.90
2022-11-07T00:06:09.513Z,10.90
2022-11-07T00:08:37.549Z,10.90
2022-11-07T00:11:06.732Z,10.90
2022-11-07T00:13:35.143Z,10.90
2022-11-07T00:16:05.381Z,11.00
2022-11-07T00:18:34.943Z,11.00
2022-11-07T00:21:03.317Z,11.00
2022-11-07T00:23:31.270Z,11.00
2022-11-07T00:26:03.066Z,11.00
2022-11-07T00:28:33.793Z,11.00
2022-11-07T00:31:01.767Z,11.00
2022-11-07T00:33:29.937Z,11.00
2022-11-07T00:35:59.216Z,11.00
2022-11-07T00:38:27.294Z,11.00
2022-11-07T00:40:56.742Z,11.00
2022-11-07T00:43:25.162Z,11.00
2022-11-07T00:45:53.301Z,11.00
2022-11-07T00:48:21.216Z,11.00
2022-11-07T00:50:49.249Z,11.00
2022-11-07T00:53:18.647Z,11.00
2022-11-07T00:55:47.575Z,11.00
2022-11-07T00:58:16.973Z,11.00
2022-11-07T01:00:45.068Z,11.00
2022-11-07T01:03:30.247Z,11.00
2022-11-07T01:05:59.363Z,11.00
2022-11-07T01:08:29.346Z,11.00
2022-11-07T01:10:57.719Z,11.00
2022-11-07T01:13:26.208Z,11.00
2022-11-07T01:15:54.217Z,11.00
2022-11-07T01:18:22.143Z,11.00
2022-11-07T01:20:50.450Z,11.00
2022-11-07T01:23:18.920Z,11.00
2022-11-07T01:25:48.224Z,11.00
2022-11-07T01:28:16.543Z,11.00
2022-11-07T01:30:45.624Z,11.00
2022-11-07T01:33:14.109Z,11.00
2022-11-07T01:35:42.464Z,11.00
2022-11-07T01:38:10.396Z,11.00
2022-11-07T01:40:56.635Z,11.00
2022-11-07T01:43:45.396Z,11.00
2022-11-07T01:46:13.412Z,11.00
2022-11-07T01:48:43.635Z,11.10
2022-11-07T01:51:13.206Z,11.10
2022-11-07T01:53:42.680Z,11.10
2022-11-07T01:56:15.131Z,11.10
2022-11-07T01:58:45.811Z,11.10
2022-11-07T02:01:14.026Z,11.00
2022-11-07T02:03:42.102Z,11.00
2022-11-07T02:06:14.972Z,11.00
2022-11-07T02:08:45.551Z,11.10
2022-11-07T02:11:14.406Z,11.00
2022-11-07T02:13:42.428Z,11.00
2022-11-07T02:16:11.947Z,11.00
2022-11-07T02:18:43.451Z,11.00
2022-11-07T02:21:18.468Z,11.00
2022-11-07T02:23:54.876Z,11.00
2022-11-07T02:26:25.501Z,11.00
2022-11-07T02:28:56.104Z,11.00
2022-11-07T02:31:24.250Z,11.00
2022-11-07T02:33:52.227Z,11.00
2022-11-07T02:36:24.380Z,11.00
2022-11-07T02:38:57.489Z,11.00
2022-11-07T02:41:29.876Z,11.00
2022-11-07T02:44:00.459Z,11.00
2022-11-07T02:46:30.232Z,11.00
2022-11-07T02:49:00.145Z,11.00
2022-11-07T02:51:28.259Z,11.00
2022-11-07T02:53:56.167Z,11.00
2022-11-07T02:56:25.910Z,11.00
2022-11-07T02:58:53.885Z,11.00
2022-11-07T03:01:22.629Z,11.00
2022-11-07T03:03:52.049Z,11.00
2022-11-07T03:06:22.234Z,11.00
2022-11-07T03:08:50.442Z,11.00
2022-11-07T03:11:19.892Z,11.00
2022-11-07T03:13:50.726Z,11.10
2022-11-07T03:16:20.315Z,11.10
2022-11-07T03:18:48.407Z,11.00
2022-11-07T03:21:16.464Z,11.00
2022-11-07T03:23:44.316Z,11.00
2022-11-07T03:26:12.230Z,11.00
2022-11-07T03:28:40.380Z,11.10
2022-11-07T03:31:09.630Z,11.10
2022-11-07T03:33:37.553Z,11.00
2022-11-07T03:36:06.155Z,11.00
2022-11-07T03:38:33.991Z,11.00
2022-11-07T03:41:01.870Z,11.00
2022-11-07T03:43:29.792Z,11.10
2022-11-07T03:45:57.674Z,11.00
2022-11-07T03:48:26.936Z,11.10
2022-11-07T03:50:54.840Z,11.00
2022-11-07T03:53:25.928Z,11.00
2022-11-07T03:55:55.864Z,11.10
2022-11-07T03:58:24.573Z,11.10
2022-11-07T04:00:52.715Z,11.10
2022-11-07T04:03:20.617Z,11.10
2022-11-07T04:05:49.967Z,11.10
2022-11-07T04:08:18.053Z,11.10
2022-11-07T04:10:45.971Z,11.10
2022-11-07T04:13:31.201Z,11.10
2022-11-07T04:16:17.823Z,11.10
2022-11-07T04:18:45.856Z,11.10
2022-11-07T04:21:15.342Z,11.10
2022-11-07T04:23:43.262Z,11.10
2022-11-07T04:26:28.608Z,11.10
2022-11-07T04:28:56.524Z,11.10
2022-11-07T04:31:24.572Z,11.10
2022-11-07T04:33:52.600Z,11.10
2022-11-07T04:36:21.899Z,11.10
2022-11-07T04:38:49.751Z,11.10
2022-11-07T04:41:22.594Z,11.10
2022-11-07T04:43:51.138Z,11.10
2022-11-07T04:46:19.161Z,11.20
2022-11-07T04:48:47.103Z,11.10
2022-11-07T04:51:17.713Z,11.10
2022-11-07T04:53:47.039Z,11.20
2022-11-07T04:56:14.978Z,11.10
2022-11-07T04:58:42.838Z,11.10
2022-11-07T05:01:10.754Z,11.20
2022-11-07T05:03:41.762Z,11.20
2022-11-07T05:06:15.376Z,11.20
2022-11-07T05:08:43.437Z,11.20
2022-11-07T05:11:12.821Z,11.20
2022-11-07T05:13:40.855Z,11.20
2022-11-07T05:16:15.363Z,11.20
2022-11-07T05:18:43.449Z,11.20
2022-11-07T05:21:11.777Z,11.20
2022-11-07T05:23:38.760Z,11.20
2022-11-07T05:26:06.967Z,11.20
2022-11-07T05:28:39.601Z,11.20
2022-11-07T05:31:09.249Z,11.20
2022-11-07T05:33:37.571Z,11.20
2022-11-07T05:36:13.221Z,11.20
2022-11-07T05:38:42.488Z,11.30
2022-11-07T05:41:10.978Z,11.20
2022-11-07T05:43:40.853Z,11.20
2022-11-07T05:46:09.225Z,11.20
2022-11-07T05:48:37.692Z,11.30
2022-11-07T05:51:06.772Z,11.20
2022-11-07T05:53:35.380Z,11.20
2022-11-07T05:56:03.360Z,11.30
2022-11-07T05:58:31.330Z,11.30
2022-11-07T06:01:03.551Z,11.30
2022-11-07T06:03:31.896Z,11.30
2022-11-07T06:06:00.173Z,11.30
2022-11-07T06:08:28.102Z,11.30
2022-11-07T06:10:56.052Z,11.30
2022-11-07T06:13:23.980Z,11.30
2022-11-07T06:15:52.021Z,11.30
2022-11-07T06:18:22.249Z,11.30
2022-11-07T06:20:50.301Z,11.30
2022-11-07T06:23:19.128Z,11.30
2022-11-07T06:25:47.516Z,11.30
2022-11-07T06:28:16.487Z,11.30
2022-11-07T06:30:44.930Z,11.30
2022-11-07T06:33:14.699Z,11.30
2022-11-07T06:35:44.580Z,11.30
2022-11-07T06:38:13.830Z,11.40
2022-11-07T06:40:42.563Z,11.40
2022-11-07T06:43:12.601Z,11.40
2022-11-07T06:45:41.228Z,11.40
2022-11-07T06:48:09.741Z,11.40
2022-11-07T06:50:38.734Z,11.40
2022-11-07T06:53:09.998Z,11.40
2022-11-07T06:55:38.800Z,11.40
2022-11-07T06:58:07.407Z,11.40
2022-11-07T07:00:37.425Z,11.40
2022-11-07T07:03:05.989Z,11.40
2022-11-07T07:05:34.594Z,11.40
2022-11-07T07:08:02.634Z,11.50
2022-11-07T07:10:32.793Z,11.50
2022-11-07T07:13:01.713Z,11.50
2022-11-07T07:15:35.356Z,11.50
2022-11-07T07:18:15.659Z,11.50
2022-11-07T07:20:43.670Z,11.50
2022-11-07T07:23:11.630Z,11.50
2022-11-07T07:25:41.018Z,11.50
2022-11-07T07:28:08.954Z,11.50
2022-11-07T07:30:36.873Z,11.50
2022-11-07T07:33:06.007Z,11.50
2022-11-07T07:35:33.997Z,11.50
2022-11-07T07:38:02.004Z,11.50
2022-11-07T07:40:29.923Z,11.50
2022-11-07T07:42:59.252Z,11.60
2022-11-07T07:45:27.163Z,11.60
2022-11-07T07:48:00.443Z,11.60
2022-11-07T07:50:28.470Z,11.60
2022-11-07T07:52:57.646Z,11.60
2022-11-07T07:55:25.916Z,11.60
2022-11-07T07:57:53.834Z,11.60
2022-11-07T08:00:23.355Z,11.60
2022-11-07T08:02:51.302Z,11.60
2022-11-07T08:05:19.331Z,11.70
2022-11-07T08:07:48.526Z,11.70
2022-11-07T08:13:05.424Z,11.70
2022-11-07T08:15:34.791Z,11.80
2022-11-07T08:18:03.696Z,11.80
2022-11-07T08:20:31.682Z,11.80
2022-11-07T08:23:03.272Z,11.90
2022-11-07T08:25:31.725Z,11.90
2022-11-07T08:27:59.853Z,11.90
2022-11-07T08:30:28.300Z,12.00
2022-11-07T08:33:01.007Z,12.00
2022-11-07T08:35:28.908Z,12.00
2022-11-07T08:37:57.077Z,12.00
2022-11-07T08:40:25.184Z,12.00
2022-11-07T08:42:53.179Z,12.10
2022-11-07T08:45:21.079Z,12.10
2022-11-07T08:47:49.018Z,12.10
2022-11-07T08:50:18.437Z,12.20
2022-11-07T08:52:46.352Z,12.20
2022-11-07T08:55:14.276Z,12.20
2022-11-07T08:57:42.182Z,12.20
2022-11-07T09:00:11.245Z,12.20
2022-11-07T09:03:08.740Z,12.20
2022-11-07T09:05:28.586Z,12.20
2022-11-07T09:07:56.643Z,12.30
2022-11-07T09:10:24.646Z,12.30
2022-11-07T09:12:53.498Z,12.30
2022-11-07T09:15:22.023Z,12.30
2022-11-07T09:17:51.004Z,12.40
2022-11-07T09:20:19.669Z,12.40
2022-11-07T09:22:49.460Z,12.40
2022-11-07T09:25:17.552Z,12.50
2022-11-07T09:27:47.276Z,12.50
2022-11-07T09:30:15.506Z,12.50
2022-11-07T09:32:45.324Z,12.60
2022-11-07T09:35:14.417Z,12.60
2022-11-07T09:37:43.198Z,12.60
2022-11-07T09:40:29.602Z,12.60
2022-11-07T09:43:11.852Z,12.60
2022-11-07T09:45:52.380Z,12.60
2022-11-07T09:48:25.080Z,12.60
2022-11-07T09:50:53.489Z,12.70
2022-11-07T09:53:31.304Z,12.70
2022-11-07T09:56:04.049Z,12.70
2022-11-07T09:58:35.730Z,12.70
2022-11-07T10:01:07.023Z,12.80
2022-11-07T10:03:38.021Z,12.80
2022-11-07T10:06:16.920Z,12.80
2022-11-07T10:08:51.785Z,12.80
2022-11-07T10:11:32.524Z,12.80
2022-11-07T10:14:17.367Z,12.90
2022-11-07T10:16:59.134Z,12.90
2022-11-07T10:19:42.771Z,12.90
2022-11-07T10:22:26.632Z,12.90
2022-11-07T10:25:15.245Z,13.00
2022-11-07T10:27:47.004Z,13.00
2022-11-07T10:30:18.841Z,13.10
2022-11-07T10:32:54.862Z,13.10
2022-11-07T10:35:27.740Z,13.10
2022-11-07T10:37:57.480Z,13.20
2022-11-07T10:40:28.801Z,13.20
2022-11-07T10:42:58.984Z,13.20
2022-11-07T10:45:29.252Z,13.20
2022-11-07T10:47:58.706Z,13.30
2022-11-07T10:50:27.537Z,13.30
2022-11-07T10:52:56.519Z,13.40
2022-11-07T10:55:25.476Z,13.50
2022-11-07T10:58:00.468Z,13.60
2022-11-07T11:00:32.944Z,13.60
2022-11-07T11:03:01.146Z,13.70
2022-11-07T11:05:41.995Z,13.70
2022-11-07T11:08:16.568Z,13.60
2022-11-07T11:10:44.865Z,13.70
2022-11-07T11:13:27.099Z,13.70
2022-11-07T11:16:05.200Z,13.70
2022-11-07T11:18:34.155Z,13.70
2022-11-07T11:21:05.831Z,13.70
2022-11-07T11:23:37.566Z,13.70
2022-11-07T11:26:09.544Z,13.70
2022-11-07T11:28:42.209Z,13.80
2022-11-07T11:31:22.764Z,13.80
2022-11-07T11:33:55.617Z,13.80
2022-11-07T11:36:27.661Z,13.80
2022-11-07T11:38:56.149Z,13.80
2022-11-07T11:41:32.277Z,13.80
2022-11-07T11:44:04.481Z,13.80
2022-11-07T11:46:39.184Z,13.70
2022-11-07T11:49:13.597Z,13.70
2022-11-07T11:51:44.851Z,13.70
2022-11-07T11:54:16.147Z,13.70
2022-11-07T11:56:54.175Z,13.70
2022-11-07T11:59:57.500Z,13.70
2022-11-07T12:02:47.076Z,13.70
2022-11-07T12:05:28.837Z,13.70
2022-11-07T12:08:08.735Z,13.70
2022-11-07T12:10:44.602Z,13.80
2022-11-07T12:13:21.008Z,13.80
2022-11-07T12:16:00.767Z,13.70
2022-11-07T12:18:40.231Z,13.80
2022-11-07T12:21:20.749Z,13.80
2022-11-07T12:23:59.779Z,13.80
2022-11-07T12:26:33.284Z,13.80
2022-11-07T12:29:10.598Z,13.80
2022-11-07T12:31:49.974Z,13.80
2022-11-07T12:34:29.314Z,13.80
2022-11-07T12:37:15.000Z,13.80
2022-11-07T12:40:04.850Z,13.90
2022-11-07T12:42:46.566Z,13.90
2022-11-07T12:45:22.279Z,13.90
2022-11-07T12:48:13.039Z,13.90
2022-11-07T12:50:48.024Z,13.90
2022-11-07T12:53:30.618Z,13.90
2022-11-07T12:56:03.833Z,13.90
2022-11-07T12:58:33.557Z,13.90
2022-11-07T13:01:02.602Z,13.90
2022-11-07T13:03:58.463Z,13.90
2022-11-07T13:06:36.453Z,13.90
2022-11-07T13:09:15.776Z,13.90
2022-11-07T13:11:50.389Z,13.90
2022-11-07T13:14:27.298Z,13.90
2022-11-07T13:17:15.626Z,13.90
2022-11-07T13:19:45.231Z,13.90
2022-11-07T13:22:32.231Z,13.90
2022-11-07T13:25:16.022Z,13.90
2022-11-07T13:27:46.718Z,13.90
2022-11-07T13:30:21.139Z,13.90
2022-11-07T13:32:51.008Z,13.90
2022-11-07T13:35:29.541Z,13.90
2022-11-07T13:38:07.346Z,13.90
2022-11-07T13:40:39.961Z,13.90
2022-11-07T13:43:13.939Z,13.90
2022-11-07T13:45:47.101Z,13.90
2022-11-07T13:48:20.744Z,13.90
2022-11-07T13:50:55.258Z,14.00
2022-11-07T13:53:29.419Z,14.00
2022-11-07T13:56:02.052Z,14.00
2022-11-07T13:58:32.756Z,14.00
2022-11-07T14:01:09.605Z,14.00
2022-11-07T14:03:37.620Z,14.00
2022-11-07T14:06:06.534Z,14.00
2022-11-07T14:08:39.685Z,14.00
2022-11-07T14:11:17.540Z,14.00
2022-11-07T14:13:49.101Z,14.00
2022-11-07T14:16:21.901Z,14.00
2022-11-07T14:18:52.381Z,14.10
2022-11-07T14:21:21.903Z,14.10
2022-11-07T14:23:51.360Z,14.00
2022-11-07T14:26:23.225Z,14.00
2022-11-07T14:28:53.748Z,14.10
2022-11-07T14:31:27.595Z,14.00
2022-11-07T14:33:57.917Z,14.10
2022-11-07T14:36:26.749Z,14.00
2022-11-07T14:39:01.504Z,14.00
2022-11-07T14:41:29.809Z,14.00
2022-11-07T14:44:03.063Z,14.00
2022-11-07T14:46:31.831Z,14.00
2022-11-07T14:49:00.108Z,14.00
2022-11-07T14:51:29.561Z,14.00
2022-11-07T14:54:02.545Z,14.00
2022-11-07T14:56:35.988Z,13.90
2022-11-07T14:59:04.161Z,14.00
2022-11-07T15:01:34.211Z,13.90
2022-11-07T15:04:05.765Z,13.90
2022-11-07T15:06:35.578Z,13.90
2022-11-07T15:09:07.138Z,13.90
2022-11-07T15:11:36.663Z,13.90
2022-11-07T15:14:22.406Z,13.90
2022-11-07T15:16:52.103Z,13.90
2022-11-07T15:19:22.333Z,13.90
2022-11-07T15:21:54.226Z,13.80
2022-11-07T15:24:33.487Z,13.80
2022-11-07T15:27:02.902Z,13.80
2022-11-07T15:29:35.872Z,13.80
2022-11-07T15:32:13.091Z,13.80
2022-11-07T15:35:00.904Z,13.80
2022-11-07T15:37:29.361Z,13.70
2022-11-07T15:39:58.665Z,13.70
2022-11-07T15:42:26.583Z,13.70
2022-11-07T15:44:54.462Z,13.70
2022-11-07T15:47:23.315Z,13.70
2022-11-07T15:49:51.363Z,13.70
2022-11-07T15:52:19.419Z,13.70
2022-11-07T15:54:47.472Z,13.70
2022-11-07T15:57:16.969Z,13.70
2022-11-07T15:59:45.093Z,13.70
2022-11-07T16:02:17.563Z,13.60
2022-11-07T16:04:45.691Z,13.60
2022-11-07T16:07:17.569Z,13.60
2022-11-07T16:09:48.350Z,13.60
2022-11-07T16:12:19.688Z,13.60
2022-11-07T16:14:47.692Z,13.60
2022-11-07T16:17:17.999Z,13.60
2022-11-07T16:19:46.593Z,13.60
2022-11-07T16:22:16.021Z,13.60
2022-11-07T16:24:44.023Z,13.60
2022-11-07T16:27:16.774Z,13.60
2022-11-07T16:29:46.173Z,13.50
2022-11-07T16:32:17.873Z,13.50
2022-11-07T16:34:46.680Z,13.50
2022-11-07T16:37:14.581Z,13.50
2022-11-07T16:39:42.481Z,13.50
2022-11-07T16:42:14.594Z,13.50
2022-11-07T16:44:42.661Z,13.50
2022-11-07T16:47:14.910Z,13.50
2022-11-07T16:49:43.015Z,13.50
2022-11-07T16:52:14.749Z,13.50
2022-11-07T16:54:42.737Z,13.50
2022-11-07T16:57:12.827Z,13.50
2022-11-07T16:59:41.207Z,13.50
2022-11-07T17:02:20.625Z,13.50
2022-11-07T17:04:49.683Z,13.50
2022-11-07T17:07:18.986Z,13.50
2022-11-07T17:09:46.926Z,13.50
2022-11-07T17:12:17.162Z,13.50
2022-11-07T17:14:45.437Z,13.50
2022-11-07T17:17:16.096Z,13.50
2022-11-07T17:19:44.516Z,13.50
2022-11-07T17:22:13.231Z,13.50
2022-11-07T17:24:42.938Z,13.50
2022-11-07T17:27:20.609Z,13.50
2022-11-07T17:29:48.760Z,13.50
2022-11-07T17:32:18.504Z,13.50
2022-11-07T17:34:59.262Z,13.50
2022-11-07T17:37:35.383Z,13.50
2022-11-07T17:40:03.459Z,13.50
2022-11-07T17:42:36.610Z,13.50
2022-11-07T17:45:06.597Z,13.50
2022-11-07T17:47:35.852Z,13.50
2022-11-07T17:50:04.261Z,13.50
2022-11-07T17:52:32.184Z,13.50
2022-11-07T17:55:00.108Z,13.50
2022-11-07T17:57:28.022Z,13.50
2022-11-07T17:59:55.898Z,13.50
2022-11-07T18:02:23.897Z,13.50
2022-11-07T18:04:53.281Z,13.50
2022-11-07T18:07:21.165Z,13.50
2022-11-07T18:09:49.375Z,13.50
2022-11-07T18:12:17.340Z,13.50
2022-11-07T18:14:45.305Z,13.50
2022-11-07T18:17:13.242Z,13.50
2022-11-07T18:19:41.192Z,13.50
2022-11-07T18:22:10.426Z,13.50
2022-11-07T18:24:38.302Z,13.50
2022-11-07T18:27:10.277Z,13.50
2022-11-07T18:29:39.948Z,13.50
2022-11-07T18:32:07.889Z,13.50
2022-11-07T18:34:35.792Z,13.50
2022-11-07T18:37:03.685Z,13.50
2022-11-07T18:39:33.340Z,13.50
2022-11-07T18:42:01.378Z,13.50
2022-11-07T18:44:29.295Z,13.50
2022-11-07T18:46:57.205Z,13.40
2022-11-07T18:49:25.084Z,13.40
2022-11-07T18:51:53.353Z,13.40
2022-11-07T18:54:22.067Z,13.40
2022-11-07T18:56:51.365Z,13.40
2022-11-07T18:59:19.311Z,13.40
2022-11-07T19:01:47.504Z,13.40
2022-11-07T19:04:15.663Z,13.40
2022-11-07T19:06:57.018Z,13.40
2022-11-07T19:09:27.786Z,13.40
2022-11-07T19:11:57.719Z,13.40
2022-11-07T19:14:26.209Z,13.40
2022-11-07T19:16:54.314Z,13.40
2022-11-07T19:19:22.578Z,13.30
2022-11-07T19:21:50.617Z,13.40
2022-11-07T19:24:18.551Z,13.40
2022-11-07T19:26:46.463Z,13.30
2022-11-07T19:29:16.625Z,13.30
2022-11-07T19:31:44.673Z,13.30
2022-11-07T19:34:12.580Z,13.30
2022-11-07T19:36:40.542Z,13.30
2022-11-07T19:39:08.467Z,13.30
2022-11-07T19:41:36.560Z,13.20
2022-11-07T19:44:04.578Z,13.20
2022-11-07T19:46:33.897Z,13.30
2022-11-07T19:49:01.814Z,13.20
2022-11-07T19:51:29.715Z,13.20
2022-11-07T19:53:59.484Z,13.20
2022-11-07T19:56:29.802Z,13.20
2022-11-07T19:58:58.473Z,13.20
2022-11-07T20:01:28.854Z,13.20
2022-11-07T20:03:58.825Z,13.20
2022-11-07T20:06:30.362Z,13.20
2022-11-07T20:08:58.646Z,13.20
2022-11-07T20:11:27.313Z,13.20
2022-11-07T20:14:02.769Z,13.20
2022-11-07T20:16:31.507Z,13.10
2022-11-07T20:19:01.407Z,13.10
2022-11-07T20:21:30.489Z,13.10
2022-11-07T20:23:59.472Z,13.10
2022-11-07T20:26:29.942Z,13.10
2022-11-07T20:28:58.559Z,13.10
2022-11-07T20:31:28.170Z,13.10
2022-11-07T20:34:01.031Z,13.10
2022-11-07T20:36:31.064Z,13.10
2022-11-07T20:39:00.086Z,13.10
2022-11-07T20:41:28.625Z,13.10
2022-11-07T20:43:58.113Z,13.10
2022-11-07T20:46:26.194Z,13.10
2022-11-07T20:48:54.517Z,13.10
2022-11-07T20:51:26.179Z,13.10
2022-11-07T20:53:54.642Z,13.10
2022-11-07T20:56:24.935Z,13.20
2022-11-07T20:58:53.139Z,13.10
2022-11-07T21:01:23.261Z,13.20
2022-11-07T21:03:51.836Z,13.10
2022-11-07T21:06:20.622Z,13.20
2022-11-07T21:08:50.620Z,13.20
2022-11-07T21:11:18.665Z,13.20
2022-11-07T21:13:52.647Z,13.20
2022-11-07T21:16:21.957Z,13.20
2022-11-07T21:18:50.523Z,13.20
2022-11-07T21:21:20.599Z,13.20
2022-11-07T21:23:51.340Z,13.20
2022-11-07T21:26:21.309Z,13.20
2022-11-07T21:28:49.669Z,13.30
2022-11-07T21:31:19.761Z,13.30
2022-11-07T21:33:47.783Z,13.30
2022-11-07T21:36:18.515Z,13.20
2022-11-07T21:38:46.826Z,13.20
2022-11-07T21:41:17.173Z,13.30
2022-11-07T21:43:45.479Z,13.30
2022-11-07T21:46:16.137Z,13.20
2022-11-07T21:48:45.660Z,13.20
2022-11-07T21:51:15.505Z,13.20
2022-11-07T21:53:43.866Z,13.30
2022-11-07T21:56:16.983Z,13.20
2022-11-07T21:58:46.027Z,13.20
2022-11-07T22:01:14.020Z,13.30
2022-11-07T22:04:05.347Z,13.30
2022-11-07T22:06:30.708Z,13.30
2022-11-07T22:08:58.821Z,13.30
2022-11-07T22:11:28.353Z,13.30
2022-11-07T22:13:56.982Z,13.20
2022-11-07T22:16:25.396Z,13.30
2022-11-07T22:18:53.535Z,13.20
2022-11-07T22:21:23.587Z,13.30
2022-11-07T22:23:52.505Z,13.20
2022-11-07T22:26:23.097Z,13.20
2022-11-07T22:28:54.053Z,13.20
2022-11-07T22:31:24.094Z,13.20
2022-11-07T22:33:53.332Z,13.20
2022-11-07T22:36:21.954Z,13.20
2022-11-07T22:38:50.272Z,13.20
2022-11-07T22:41:20.138Z,13.20
2022-11-07T22:43:48.809Z,13.20
2022-11-07T22:46:22.650Z,13.20
2022-11-07T22:48:51.670Z,13.20
2022-11-07T22:51:21.583Z,13.20
2022-11-07T22:53:49.912Z,13.10
2022-11-07T22:56:21.577Z,13.10
2022-11-07T22:58:49.865Z,13.20
2022-11-07T23:01:21.098Z,13.10
2022-11-07T23:03:49.922Z,13.10
2022-11-07T23:06:19.104Z,13.20
2022-11-07T23:08:48.058Z,13.20
2022-11-07T23:14:08.588Z,13.10
2022-11-07T23:16:39.314Z,13.10
2022-11-07T23:19:11.944Z,13.10
2022-11-07T23:21:40.572Z,13.10
2022-11-07T23:24:09.407Z,13.10
2022-11-07T23:26:37.776Z,13.00
2022-11-07T23:29:11.269Z,13.10
2022-11-07T23:31:42.831Z,13.10
2022-11-07T23:34:10.957Z,13.10
2022-11-07T23:36:43.958Z,13.00
2022-11-07T23:39:15.726Z,13.00
2022-11-07T23:41:44.030Z,13.00
2022-11-07T23:44:12.914Z,13.00
2022-11-07T23:47:00.969Z,13.00
2022-11-07T23:49:46.894Z,13.00
2022-11-07T23:52:15.682Z,12.90
2022-11-07T23:55:01.157Z,12.90
2022-11-07T23:57:29.426Z,12.90
